sensor_id;sensor_type;location;lat;lon;timestamp;temperature;humidity
74792;SHT30;63319;46.046;17.802;2023-06-01T00:00:56;23.55;59.08
74792;SHT30;63319;46.046;17.802;2023-06-01T00:03:59;23.56;59.14
74792;SHT30;63319;46.046;17.802;2023-06-01T00:07:03;23.54;59.15
74792;SHT30;63319;46.046;17.802;2023-06-01T00:10:06;23.55;59.01
74792;SHT30;63319;46.046;17.802;2023-06-01T00:13:08;23.52;59.19
74792;SHT30;63319;46.046;17.802;2023-06-01T00:16:11;23.52;59.02
74792;SHT30;63319;46.046;17.802;2023-06-01T00:19:15;23.54;58.98
74792;SHT30;63319;46.046;17.802;2023-06-01T00:22:18;23.55;59.14
74792;SHT30;63319;46.046;17.802;2023-06-01T00:25:21;23.49;59.19
74792;SHT30;63319;46.046;17.802;2023-06-01T00:28:23;23.54;59.18
74792;SHT30;63319;46.046;17.802;2023-06-01T00:31:26;23.52;59.11
74792;SHT30;63319;46.046;17.802;2023-06-01T00:34:29;23.52;59.03
74792;SHT30;63319;46.046;17.802;2023-06-01T00:37:32;23.52;59.13
74792;SHT30;63319;46.046;17.802;2023-06-01T00:40:35;23.51;59.05
74792;SHT30;63319;46.046;17.802;2023-06-01T00:43:38;23.51;59.15
74792;SHT30;63319;46.046;17.802;2023-06-01T00:46:40;23.52;58.90
74792;SHT30;63319;46.046;17.802;2023-06-01T00:49:43;23.51;59.15
74792;SHT30;63319;46.046;17.802;2023-06-01T00:52:48;23.49;59.17
74792;SHT30;63319;46.046;17.802;2023-06-01T00:55:52;23.49;59.32
74792;SHT30;63319;46.046;17.802;2023-06-01T00:58:54;23.49;59.18
74792;SHT30;63319;46.046;17.802;2023-06-01T01:01:57;23.51;59.01
74792;SHT30;63319;46.046;17.802;2023-06-01T01:05:00;23.49;59.17
74792;SHT30;63319;46.046;17.802;2023-06-01T01:08:26;23.52;59.24
74792;SHT30;63319;46.046;17.802;2023-06-01T01:11:30;23.49;59.22
74792;SHT30;63319;46.046;17.802;2023-06-01T01:14:50;23.49;59.29
74792;SHT30;63319;46.046;17.802;2023-06-01T01:18:03;23.48;59.24
74792;SHT30;63319;46.046;17.802;2023-06-01T01:21:07;23.49;59.26
74792;SHT30;63319;46.046;17.802;2023-06-01T01:25:02;23.49;59.23
74792;SHT30;63319;46.046;17.802;2023-06-01T01:31:32;23.45;59.32
74792;SHT30;63319;46.046;17.802;2023-06-01T01:34:37;23.46;59.23
74792;SHT30;63319;46.046;17.802;2023-06-01T01:37:54;23.46;59.35
74792;SHT30;63319;46.046;17.802;2023-06-01T01:40:59;23.45;59.36
74792;SHT30;63319;46.046;17.802;2023-06-01T01:44:03;23.42;59.35
74792;SHT30;63319;46.046;17.802;2023-06-01T01:47:12;23.45;59.32
74792;SHT30;63319;46.046;17.802;2023-06-01T01:50:21;23.46;59.35
74792;SHT30;63319;46.046;17.802;2023-06-01T01:53:26;23.45;59.29
74792;SHT30;63319;46.046;17.802;2023-06-01T01:56:29;23.44;59.24
74792;SHT30;63319;46.046;17.802;2023-06-01T01:59:33;23.45;59.30
74792;SHT30;63319;46.046;17.802;2023-06-01T02:02:37;23.42;59.48
74792;SHT30;63319;46.046;17.802;2023-06-01T02:05:40;23.42;59.41
74792;SHT30;63319;46.046;17.802;2023-06-01T02:08:43;23.41;59.31
74792;SHT30;63319;46.046;17.802;2023-06-01T02:11:46;23.38;59.32
74792;SHT30;63319;46.046;17.802;2023-06-01T02:14:49;23.39;59.30
74792;SHT30;63319;46.046;17.802;2023-06-01T02:17:52;23.41;59.31
74792;SHT30;63319;46.046;17.802;2023-06-01T02:20:57;23.41;59.39
74792;SHT30;63319;46.046;17.802;2023-06-01T02:24:00;23.38;59.44
74792;SHT30;63319;46.046;17.802;2023-06-01T02:27:07;23.37;59.35
74792;SHT30;63319;46.046;17.802;2023-06-01T02:30:10;23.38;59.38
74792;SHT30;63319;46.046;17.802;2023-06-01T02:33:13;23.37;59.31
74792;SHT30;63319;46.046;17.802;2023-06-01T02:36:17;23.35;59.36
74792;SHT30;63319;46.046;17.802;2023-06-01T02:39:19;23.35;59.34
74792;SHT30;63319;46.046;17.802;2023-06-01T02:42:22;23.34;59.47
74792;SHT30;63319;46.046;17.802;2023-06-01T02:45:25;23.32;59.45
74792;SHT30;63319;46.046;17.802;2023-06-01T02:48:28;23.32;59.66
74792;SHT30;63319;46.046;17.802;2023-06-01T02:51:30;23.34;59.55
74792;SHT30;63319;46.046;17.802;2023-06-01T02:54:43;23.34;59.52
74792;SHT30;63319;46.046;17.802;2023-06-01T02:58:06;23.32;59.49
74792;SHT30;63319;46.046;17.802;2023-06-01T03:01:23;23.32;59.58
74792;SHT30;63319;46.046;17.802;2023-06-01T03:04:26;23.32;59.56
74792;SHT30;63319;46.046;17.802;2023-06-01T03:07:32;23.31;59.46
74792;SHT30;63319;46.046;17.802;2023-06-01T03:10:44;23.32;59.54
74792;SHT30;63319;46.046;17.802;2023-06-01T03:13:56;23.32;59.80
74792;SHT30;63319;46.046;17.802;2023-06-01T03:17:04;23.29;59.84
74792;SHT30;63319;46.046;17.802;2023-06-01T03:20:07;23.29;59.78
74792;SHT30;63319;46.046;17.802;2023-06-01T03:23:18;23.28;59.80
74792;SHT30;63319;46.046;17.802;2023-06-01T03:26:22;23.29;59.82
74792;SHT30;63319;46.046;17.802;2023-06-01T03:29:25;23.31;59.80
74792;SHT30;63319;46.046;17.802;2023-06-01T03:32:28;23.29;59.81
74792;SHT30;63319;46.046;17.802;2023-06-01T03:35:32;23.31;59.80
74792;SHT30;63319;46.046;17.802;2023-06-01T03:38:35;23.31;59.74
74792;SHT30;63319;46.046;17.802;2023-06-01T03:41:38;23.31;59.80
74792;SHT30;63319;46.046;17.802;2023-06-01T03:44:41;23.31;59.77
74792;SHT30;63319;46.046;17.802;2023-06-01T03:47:44;23.32;59.73
74792;SHT30;63319;46.046;17.802;2023-06-01T03:50:48;23.32;59.75
74792;SHT30;63319;46.046;17.802;2023-06-01T03:53:51;23.34;59.74
74792;SHT30;63319;46.046;17.802;2023-06-01T03:56:54;23.35;59.75
74792;SHT30;63319;46.046;17.802;2023-06-01T03:59:57;23.31;59.67
74792;SHT30;63319;46.046;17.802;2023-06-01T04:03:00;23.34;59.69
74792;SHT30;63319;46.046;17.802;2023-06-01T04:06:10;23.34;59.61
74792;SHT30;63319;46.046;17.802;2023-06-01T04:09:22;23.34;59.59
74792;SHT30;63319;46.046;17.802;2023-06-01T04:12:25;23.37;59.68
74792;SHT30;63319;46.046;17.802;2023-06-01T04:15:28;23.34;59.64
74792;SHT30;63319;46.046;17.802;2023-06-01T04:18:32;23.35;59.61
74792;SHT30;63319;46.046;17.802;2023-06-01T04:21:36;23.37;59.60
74792;SHT30;63319;46.046;17.802;2023-06-01T04:24:39;23.37;59.58
74792;SHT30;63319;46.046;17.802;2023-06-01T04:27:44;23.37;59.59
74792;SHT30;63319;46.046;17.802;2023-06-01T04:30:47;23.35;59.52
74792;SHT30;63319;46.046;17.802;2023-06-01T04:33:52;23.38;59.49
74792;SHT30;63319;46.046;17.802;2023-06-01T04:36:58;23.41;59.50
74792;SHT30;63319;46.046;17.802;2023-06-01T04:40:03;23.41;59.41
74792;SHT30;63319;46.046;17.802;2023-06-01T04:43:11;23.44;59.37
74792;SHT30;63319;46.046;17.802;2023-06-01T04:46:15;23.44;59.38
74792;SHT30;63319;46.046;17.802;2023-06-01T04:49:19;23.45;59.33
74792;SHT30;63319;46.046;17.802;2023-06-01T04:52:21;23.46;59.28
74792;SHT30;63319;46.046;17.802;2023-06-01T04:55:25;23.49;59.21
74792;SHT30;63319;46.046;17.802;2023-06-01T04:58:28;23.52;59.15
74792;SHT30;63319;46.046;17.802;2023-06-01T05:01:31;23.52;59.10
74792;SHT30;63319;46.046;17.802;2023-06-01T05:04:35;23.52;59.02
74792;SHT30;63319;46.046;17.802;2023-06-01T05:07:39;23.56;58.93
74792;SHT30;63319;46.046;17.802;2023-06-01T05:10:42;23.59;58.85
74792;SHT30;63319;46.046;17.802;2023-06-01T05:13:45;23.61;58.81
74792;SHT30;63319;46.046;17.802;2023-06-01T05:16:48;23.63;58.77
74792;SHT30;63319;46.046;17.802;2023-06-01T05:19:52;23.63;58.71
74792;SHT30;63319;46.046;17.802;2023-06-01T05:22:55;23.67;58.72
74792;SHT30;63319;46.046;17.802;2023-06-01T05:25:58;23.67;58.65
74792;SHT30;63319;46.046;17.802;2023-06-01T05:29:10;23.69;58.59
74792;SHT30;63319;46.046;17.802;2023-06-01T05:32:14;23.70;58.59
74792;SHT30;63319;46.046;17.802;2023-06-01T05:35:17;23.73;58.43
74792;SHT30;63319;46.046;17.802;2023-06-01T05:38:20;23.76;58.46
74792;SHT30;63319;46.046;17.802;2023-06-01T05:41:22;23.77;58.48
74792;SHT30;63319;46.046;17.802;2023-06-01T05:44:25;23.79;58.37
74792;SHT30;63319;46.046;17.802;2023-06-01T05:47:28;23.79;58.32
74792;SHT30;63319;46.046;17.802;2023-06-01T05:50:31;23.83;58.17
74792;SHT30;63319;46.046;17.802;2023-06-01T05:53:34;23.85;58.15
74792;SHT30;63319;46.046;17.802;2023-06-01T05:56:37;23.89;58.54
74792;SHT30;63319;46.046;17.802;2023-06-01T05:59:42;23.92;58.45
74792;SHT30;63319;46.046;17.802;2023-06-01T06:02:45;23.97;58.44
74792;SHT30;63319;46.046;17.802;2023-06-01T06:05:49;24.02;58.21
74792;SHT30;63319;46.046;17.802;2023-06-01T06:08:53;24.06;58.10
74792;SHT30;63319;46.046;17.802;2023-06-01T06:11:56;24.12;58.12
74792;SHT30;63319;46.046;17.802;2023-06-01T06:14:59;24.12;58.05
74792;SHT30;63319;46.046;17.802;2023-06-01T06:18:02;24.18;58.15
74792;SHT30;63319;46.046;17.802;2023-06-01T06:21:05;24.20;58.12
74792;SHT30;63319;46.046;17.802;2023-06-01T06:24:08;24.23;58.23
74792;SHT30;63319;46.046;17.802;2023-06-01T06:27:11;24.30;58.33
74792;SHT30;63319;46.046;17.802;2023-06-01T06:30:15;24.31;58.37
74792;SHT30;63319;46.046;17.802;2023-06-01T06:33:18;24.35;58.42
74792;SHT30;63319;46.046;17.802;2023-06-01T06:36:21;24.41;58.39
74792;SHT30;63319;46.046;17.802;2023-06-01T06:39:24;24.45;58.33
74792;SHT30;63319;46.046;17.802;2023-06-01T06:42:27;24.50;58.44
74792;SHT30;63319;46.046;17.802;2023-06-01T06:45:30;24.52;58.53
74792;SHT30;63319;46.046;17.802;2023-06-01T06:48:32;24.57;58.45
74792;SHT30;63319;46.046;17.802;2023-06-01T06:51:37;24.60;58.49
74792;SHT30;63319;46.046;17.802;2023-06-01T06:54:41;24.64;58.78
74792;SHT30;63319;46.046;17.802;2023-06-01T06:57:43;24.73;58.89
74792;SHT30;63319;46.046;17.802;2023-06-01T07:00:46;24.75;59.58
74792;SHT30;63319;46.046;17.802;2023-06-01T07:03:49;24.75;59.55
74792;SHT30;63319;46.046;17.802;2023-06-01T07:06:52;24.81;59.24
74792;SHT30;63319;46.046;17.802;2023-06-01T07:09:55;24.83;58.90
74792;SHT30;63319;46.046;17.802;2023-06-01T07:12:58;24.91;59.17
74792;SHT30;63319;46.046;17.802;2023-06-01T07:16:02;24.95;58.63
74792;SHT30;63319;46.046;17.802;2023-06-01T07:19:07;25.00;58.44
74792;SHT30;63319;46.046;17.802;2023-06-01T07:22:09;25.09;58.48
74792;SHT30;63319;46.046;17.802;2023-06-01T07:25:12;25.10;58.69
74792;SHT30;63319;46.046;17.802;2023-06-01T07:28:16;25.16;58.50
74792;SHT30;63319;46.046;17.802;2023-06-01T07:31:21;25.20;57.36
74792;SHT30;63319;46.046;17.802;2023-06-01T07:34:24;25.23;58.02
74792;SHT30;63319;46.046;17.802;2023-06-01T07:37:27;25.31;57.14
74792;SHT30;63319;46.046;17.802;2023-06-01T07:40:30;25.31;57.57
74792;SHT30;63319;46.046;17.802;2023-06-01T07:43:36;25.36;57.47
74792;SHT30;63319;46.046;17.802;2023-06-01T07:46:39;25.39;57.46
74792;SHT30;63319;46.046;17.802;2023-06-01T07:49:43;25.41;56.38
74792;SHT30;63319;46.046;17.802;2023-06-01T07:52:46;25.48;56.55
74792;SHT30;63319;46.046;17.802;2023-06-01T07:55:48;25.56;55.67
74792;SHT30;63319;46.046;17.802;2023-06-01T07:58:53;25.60;55.44
74792;SHT30;63319;46.046;17.802;2023-06-01T08:01:56;25.60;55.96
74792;SHT30;63319;46.046;17.802;2023-06-01T08:04:59;25.63;55.95
74792;SHT30;63319;46.046;17.802;2023-06-01T08:08:02;25.70;55.63
74792;SHT30;63319;46.046;17.802;2023-06-01T08:11:05;25.78;55.65
74792;SHT30;63319;46.046;17.802;2023-06-01T08:14:08;25.82;55.57
74792;SHT30;63319;46.046;17.802;2023-06-01T08:17:11;25.88;55.01
74792;SHT30;63319;46.046;17.802;2023-06-01T08:20:17;25.91;55.61
74792;SHT30;63319;46.046;17.802;2023-06-01T08:23:26;26.02;55.67
74792;SHT30;63319;46.046;17.802;2023-06-01T08:26:29;26.05;55.81
74792;SHT30;63319;46.046;17.802;2023-06-01T08:29:32;26.15;55.91
74792;SHT30;63319;46.046;17.802;2023-06-01T08:32:44;26.22;55.54
74792;SHT30;63319;46.046;17.802;2023-06-01T08:35:47;26.31;55.07
74792;SHT30;63319;46.046;17.802;2023-06-01T08:38:53;26.40;54.83
74792;SHT30;63319;46.046;17.802;2023-06-01T08:45:05;26.69;53.08
74792;SHT30;63319;46.046;17.802;2023-06-01T08:48:08;26.86;52.58
74792;SHT30;63319;46.046;17.802;2023-06-01T08:51:15;26.95;52.65
74792;SHT30;63319;46.046;17.802;2023-06-01T08:54:20;27.15;52.14
74792;SHT30;63319;46.046;17.802;2023-06-01T08:57:22;27.28;50.52
74792;SHT30;63319;46.046;17.802;2023-06-01T09:00:26;27.45;50.45
74792;SHT30;63319;46.046;17.802;2023-06-01T09:03:30;27.60;49.75
74792;SHT30;63319;46.046;17.802;2023-06-01T09:06:33;27.76;49.07
74792;SHT30;63319;46.046;17.802;2023-06-01T09:09:37;27.92;48.56
74792;SHT30;63319;46.046;17.802;2023-06-01T09:12:51;28.04;48.23
74792;SHT30;63319;46.046;17.802;2023-06-01T09:15:54;28.31;47.96
74792;SHT30;63319;46.046;17.802;2023-06-01T09:18:58;28.38;47.86
74792;SHT30;63319;46.046;17.802;2023-06-01T09:22:00;28.49;47.45
74792;SHT30;63319;46.046;17.802;2023-06-01T09:25:05;28.47;47.72
74792;SHT30;63319;46.046;17.802;2023-06-01T09:28:09;28.58;47.47
74792;SHT30;63319;46.046;17.802;2023-06-01T09:31:37;28.65;47.35
74792;SHT30;63319;46.046;17.802;2023-06-01T09:34:44;28.96;46.31
74792;SHT30;63319;46.046;17.802;2023-06-01T09:37:56;28.99;46.10
74792;SHT30;63319;46.046;17.802;2023-06-01T09:41:02;29.02;46.00
74792;SHT30;63319;46.046;17.802;2023-06-01T09:44:06;29.06;45.79
74792;SHT30;63319;46.046;17.802;2023-06-01T09:47:11;29.09;45.60
74792;SHT30;63319;46.046;17.802;2023-06-01T09:50:36;29.07;45.53
74792;SHT30;63319;46.046;17.802;2023-06-01T09:53:43;29.06;45.64
74792;SHT30;63319;46.046;17.802;2023-06-01T09:56:47;28.99;45.80
74792;SHT30;63319;46.046;17.802;2023-06-01T09:59:50;29.02;46.03
74792;SHT30;63319;46.046;17.802;2023-06-01T10:02:53;29.09;45.99
74792;SHT30;63319;46.046;17.802;2023-06-01T10:05:57;29.14;45.56
74792;SHT30;63319;46.046;17.802;2023-06-01T10:09:02;29.22;45.40
74792;SHT30;63319;46.046;17.802;2023-06-01T10:12:08;29.22;45.13
74792;SHT30;63319;46.046;17.802;2023-06-01T10:15:12;29.17;45.33
74792;SHT30;63319;46.046;17.802;2023-06-01T10:18:33;29.16;45.34
74792;SHT30;63319;46.046;17.802;2023-06-01T10:21:36;29.16;45.41
74792;SHT30;63319;46.046;17.802;2023-06-01T10:24:40;29.10;45.60
74792;SHT30;63319;46.046;17.802;2023-06-01T10:28:04;29.10;45.77
74792;SHT30;63319;46.046;17.802;2023-06-01T10:31:44;28.79;46.41
74792;SHT30;63319;46.046;17.802;2023-06-01T10:34:47;28.74;46.67
74792;SHT30;63319;46.046;17.802;2023-06-01T10:41:27;29.12;46.07
74792;SHT30;63319;46.046;17.802;2023-06-01T10:47:48;28.85;46.71
74792;SHT30;63319;46.046;17.802;2023-06-01T10:51:19;28.69;46.92
74792;SHT30;63319;46.046;17.802;2023-06-01T10:54:27;28.61;47.10
74792;SHT30;63319;46.046;17.802;2023-06-01T10:57:30;28.55;47.31
74792;SHT30;63319;46.046;17.802;2023-06-01T11:00:39;28.56;47.43
74792;SHT30;63319;46.046;17.802;2023-06-01T11:03:47;28.55;47.47
74792;SHT30;63319;46.046;17.802;2023-06-01T11:06:50;28.68;47.54
74792;SHT30;63319;46.046;17.802;2023-06-01T11:09:53;28.69;47.55
74792;SHT30;63319;46.046;17.802;2023-06-01T11:13:12;28.62;47.68
74792;SHT30;63319;46.046;17.802;2023-06-01T11:19:24;28.65;47.64
74792;SHT30;63319;46.046;17.802;2023-06-01T11:22:34;28.66;47.53
74792;SHT30;63319;46.046;17.802;2023-06-01T11:25:38;28.59;47.59
74792;SHT30;63319;46.046;17.802;2023-06-01T11:28:42;28.58;47.65
74792;SHT30;63319;46.046;17.802;2023-06-01T11:31:50;28.55;47.69
74792;SHT30;63319;46.046;17.802;2023-06-01T11:34:54;28.29;48.23
74792;SHT30;63319;46.046;17.802;2023-06-01T11:37:58;28.31;57.21
74792;SHT30;63319;46.046;17.802;2023-06-01T11:41:02;28.41;48.25
74792;SHT30;63319;46.046;17.802;2023-06-01T11:44:05;28.33;48.39
74792;SHT30;63319;46.046;17.802;2023-06-01T11:47:10;28.31;48.49
74792;SHT30;63319;46.046;17.802;2023-06-01T11:50:25;28.33;49.12
74792;SHT30;63319;46.046;17.802;2023-06-01T11:53:42;28.28;51.00
74792;SHT30;63319;46.046;17.802;2023-06-01T11:56:45;28.24;51.67
74792;SHT30;63319;46.046;17.802;2023-06-01T11:59:49;28.16;52.80
74792;SHT30;63319;46.046;17.802;2023-06-01T12:03:05;28.04;52.64
74792;SHT30;63319;46.046;17.802;2023-06-01T12:06:19;27.92;53.80
74792;SHT30;63319;46.046;17.802;2023-06-01T12:09:22;27.86;54.04
74792;SHT30;63319;46.046;17.802;2023-06-01T12:12:25;27.89;53.88
74792;SHT30;63319;46.046;17.802;2023-06-01T12:15:28;27.83;53.99
74792;SHT30;63319;46.046;17.802;2023-06-01T12:18:31;27.77;54.05
74792;SHT30;63319;46.046;17.802;2023-06-01T12:21:34;27.76;54.13
74792;SHT30;63319;46.046;17.802;2023-06-01T12:24:38;27.67;54.44
74792;SHT30;63319;46.046;17.802;2023-06-01T12:27:40;27.59;54.67
74792;SHT30;63319;46.046;17.802;2023-06-01T12:30:44;27.55;54.68
74792;SHT30;63319;46.046;17.802;2023-06-01T12:33:47;27.53;54.57
74792;SHT30;63319;46.046;17.802;2023-06-01T12:36:53;27.55;54.69
74792;SHT30;63319;46.046;17.802;2023-06-01T12:39:56;27.58;54.56
74792;SHT30;63319;46.046;17.802;2023-06-01T12:43:00;27.49;55.12
74792;SHT30;63319;46.046;17.802;2023-06-01T12:46:03;27.49;54.58
74792;SHT30;63319;46.046;17.802;2023-06-01T12:49:16;27.42;54.64
74792;SHT30;63319;46.046;17.802;2023-06-01T12:52:23;27.35;54.55
74792;SHT30;63319;46.046;17.802;2023-06-01T12:55:25;27.35;54.66
74792;SHT30;63319;46.046;17.802;2023-06-01T12:58:28;27.34;55.09
74792;SHT30;63319;46.046;17.802;2023-06-01T13:01:31;27.32;54.51
74792;SHT30;63319;46.046;17.802;2023-06-01T13:04:34;27.35;54.41
74792;SHT30;63319;46.046;17.802;2023-06-01T13:07:37;27.29;54.52
74792;SHT30;63319;46.046;17.802;2023-06-01T13:10:40;27.22;54.36
74792;SHT30;63319;46.046;17.802;2023-06-01T13:13:42;27.24;54.38
74792;SHT30;63319;46.046;17.802;2023-06-01T13:16:47;27.22;54.22
74792;SHT30;63319;46.046;17.802;2023-06-01T13:19:50;27.24;54.10
74792;SHT30;63319;46.046;17.802;2023-06-01T13:22:53;27.18;54.66
74792;SHT30;63319;46.046;17.802;2023-06-01T13:25:56;27.12;54.53
74792;SHT30;63319;46.046;17.802;2023-06-01T13:28:59;27.10;54.25
74792;SHT30;63319;46.046;17.802;2023-06-01T13:32:01;27.00;54.47
74792;SHT30;63319;46.046;17.802;2023-06-01T13:35:05;26.97;54.42
74792;SHT30;63319;46.046;17.802;2023-06-01T13:38:08;26.97;54.48
74792;SHT30;63319;46.046;17.802;2023-06-01T13:41:11;26.95;54.49
74792;SHT30;63319;46.046;17.802;2023-06-01T13:44:14;26.87;54.63
74792;SHT30;63319;46.046;17.802;2023-06-01T13:47:17;26.86;54.63
74792;SHT30;63319;46.046;17.802;2023-06-01T13:50:21;26.86;54.55
74792;SHT30;63319;46.046;17.802;2023-06-01T13:53:24;26.83;54.67
74792;SHT30;63319;46.046;17.802;2023-06-01T13:56:27;26.86;54.64
74792;SHT30;63319;46.046;17.802;2023-06-01T13:59:30;26.80;54.77
74792;SHT30;63319;46.046;17.802;2023-06-01T14:02:35;26.73;54.83
74792;SHT30;63319;46.046;17.802;2023-06-01T14:05:38;26.76;54.73
74792;SHT30;63319;46.046;17.802;2023-06-01T14:08:46;26.72;54.85
74792;SHT30;63319;46.046;17.802;2023-06-01T14:11:49;26.73;54.82
74792;SHT30;63319;46.046;17.802;2023-06-01T14:14:52;26.67;54.88
74792;SHT30;63319;46.046;17.802;2023-06-01T14:17:55;26.63;54.97
74792;SHT30;63319;46.046;17.802;2023-06-01T14:20:58;26.60;55.02
74792;SHT30;63319;46.046;17.802;2023-06-01T14:24:02;26.60;55.01
74792;SHT30;63319;46.046;17.802;2023-06-01T14:27:06;26.59;55.09
74792;SHT30;63319;46.046;17.802;2023-06-01T14:30:09;26.56;55.20
74792;SHT30;63319;46.046;17.802;2023-06-01T14:33:12;26.53;55.10
74792;SHT30;63319;46.046;17.802;2023-06-01T14:36:15;26.54;55.08
74792;SHT30;63319;46.046;17.802;2023-06-01T14:39:18;26.53;55.18
74792;SHT30;63319;46.046;17.802;2023-06-01T14:42:21;26.47;55.14
74792;SHT30;63319;46.046;17.802;2023-06-01T14:45:23;26.46;55.26
74792;SHT30;63319;46.046;17.802;2023-06-01T14:48:26;26.43;55.33
74792;SHT30;63319;46.046;17.802;2023-06-01T14:51:30;26.40;55.31
74792;SHT30;63319;46.046;17.802;2023-06-01T14:54:34;26.40;55.32
74792;SHT30;63319;46.046;17.802;2023-06-01T14:57:40;26.40;55.28
74792;SHT30;63319;46.046;17.802;2023-06-01T15:00:44;26.40;55.32
74792;SHT30;63319;46.046;17.802;2023-06-01T15:03:54;26.35;55.45
74792;SHT30;63319;46.046;17.802;2023-06-01T15:06:57;26.35;55.41
74792;SHT30;63319;46.046;17.802;2023-06-01T15:10:00;26.32;55.51
74792;SHT30;63319;46.046;17.802;2023-06-01T15:13:03;26.35;55.36
74792;SHT30;63319;46.046;17.802;2023-06-01T15:16:06;26.29;55.55
74792;SHT30;63319;46.046;17.802;2023-06-01T15:19:10;26.29;55.48
74792;SHT30;63319;46.046;17.802;2023-06-01T15:22:13;26.32;55.42
74792;SHT30;63319;46.046;17.802;2023-06-01T15:25:16;26.28;55.48
74792;SHT30;63319;46.046;17.802;2023-06-01T15:28:19;26.28;55.52
74792;SHT30;63319;46.046;17.802;2023-06-01T15:31:22;26.21;55.58
74792;SHT30;63319;46.046;17.802;2023-06-01T15:34:25;26.19;55.62
74792;SHT30;63319;46.046;17.802;2023-06-01T15:37:27;26.21;55.67
74792;SHT30;63319;46.046;17.802;2023-06-01T15:40:30;26.21;55.65
74792;SHT30;63319;46.046;17.802;2023-06-01T15:43:34;26.18;55.69
74792;SHT30;63319;46.046;17.802;2023-06-01T15:46:38;26.16;55.69
74792;SHT30;63319;46.046;17.802;2023-06-01T15:49:41;26.12;55.81
74792;SHT30;63319;46.046;17.802;2023-06-01T15:52:44;26.09;55.75
74792;SHT30;63319;46.046;17.802;2023-06-01T15:55:47;26.11;55.73
74792;SHT30;63319;46.046;17.802;2023-06-01T15:58:50;26.06;55.92
74792;SHT30;63319;46.046;17.802;2023-06-01T16:01:53;26.06;55.84
74792;SHT30;63319;46.046;17.802;2023-06-01T16:04:56;26.04;55.88
74792;SHT30;63319;46.046;17.802;2023-06-01T16:07:59;26.04;55.84
74792;SHT30;63319;46.046;17.802;2023-06-01T16:11:02;26.04;55.92
74792;SHT30;63319;46.046;17.802;2023-06-01T16:14:05;26.02;55.90
74792;SHT30;63319;46.046;17.802;2023-06-01T16:17:08;25.99;55.97
74792;SHT30;63319;46.046;17.802;2023-06-01T16:20:11;25.99;55.99
74792;SHT30;63319;46.046;17.802;2023-06-01T16:23:14;25.96;56.01
74792;SHT30;63319;46.046;17.802;2023-06-01T16:26:17;25.94;56.05
74792;SHT30;63319;46.046;17.802;2023-06-01T16:29:19;25.94;56.07
74792;SHT30;63319;46.046;17.802;2023-06-01T16:32:22;25.89;56.13
74792;SHT30;63319;46.046;17.802;2023-06-01T16:35:27;25.92;56.08
74792;SHT30;63319;46.046;17.802;2023-06-01T16:38:29;25.87;56.23
74792;SHT30;63319;46.046;17.802;2023-06-01T16:41:32;25.87;56.21
74792;SHT30;63319;46.046;17.802;2023-06-01T16:44:35;25.84;56.31
74792;SHT30;63319;46.046;17.802;2023-06-01T16:47:38;25.85;56.33
74792;SHT30;63319;46.046;17.802;2023-06-01T16:50:40;25.81;56.34
74792;SHT30;63319;46.046;17.802;2023-06-01T16:53:48;25.78;56.36
74792;SHT30;63319;46.046;17.802;2023-06-01T16:56:52;25.77;56.44
74792;SHT30;63319;46.046;17.802;2023-06-01T16:59:56;25.77;56.38
74792;SHT30;63319;46.046;17.802;2023-06-01T17:02:59;25.73;56.51
74792;SHT30;63319;46.046;17.802;2023-06-01T17:06:02;25.73;56.49
74792;SHT30;63319;46.046;17.802;2023-06-01T17:09:05;25.71;56.53
74792;SHT30;63319;46.046;17.802;2023-06-01T17:12:08;25.70;56.55
74792;SHT30;63319;46.046;17.802;2023-06-01T17:15:17;25.71;56.49
74792;SHT30;63319;46.046;17.802;2023-06-01T17:18:20;25.70;56.59
74792;SHT30;63319;46.046;17.802;2023-06-01T17:21:23;25.68;56.54
74792;SHT30;63319;46.046;17.802;2023-06-01T17:24:26;25.67;56.61
74792;SHT30;63319;46.046;17.802;2023-06-01T17:27:29;25.66;56.64
74792;SHT30;63319;46.046;17.802;2023-06-01T17:30:32;25.66;56.60
74792;SHT30;63319;46.046;17.802;2023-06-01T17:33:35;25.64;56.66
74792;SHT30;63319;46.046;17.802;2023-06-01T17:36:37;25.66;56.65
74792;SHT30;63319;46.046;17.802;2023-06-01T17:39:40;25.60;56.70
74792;SHT30;63319;46.046;17.802;2023-06-01T17:42:43;25.61;56.65
74792;SHT30;63319;46.046;17.802;2023-06-01T17:45:46;25.60;56.74
74792;SHT30;63319;46.046;17.802;2023-06-01T17:48:49;25.61;56.71
74792;SHT30;63319;46.046;17.802;2023-06-01T17:51:52;25.58;56.65
74792;SHT30;63319;46.046;17.802;2023-06-01T17:54:54;25.63;56.67
74792;SHT30;63319;46.046;17.802;2023-06-01T17:57:57;25.57;56.68
74792;SHT30;63319;46.046;17.802;2023-06-01T18:01:00;25.58;56.76
74792;SHT30;63319;46.046;17.802;2023-06-01T18:04:03;25.56;56.77
74792;SHT30;63319;46.046;17.802;2023-06-01T18:07:06;25.60;56.71
74792;SHT30;63319;46.046;17.802;2023-06-01T18:10:09;25.57;56.67
74792;SHT30;63319;46.046;17.802;2023-06-01T18:13:11;25.53;56.78
74792;SHT30;63319;46.046;17.802;2023-06-01T18:16:14;25.56;56.80
74792;SHT30;63319;46.046;17.802;2023-06-01T18:19:17;25.56;56.79
74792;SHT30;63319;46.046;17.802;2023-06-01T18:22:21;25.54;56.80
74792;SHT30;63319;46.046;17.802;2023-06-01T18:25:24;25.53;56.83
74792;SHT30;63319;46.046;17.802;2023-06-01T18:28:27;25.53;56.86
74792;SHT30;63319;46.046;17.802;2023-06-01T18:31:29;25.53;56.85
74792;SHT30;63319;46.046;17.802;2023-06-01T18:34:32;25.51;56.92
74792;SHT30;63319;46.046;17.802;2023-06-01T18:37:35;25.48;56.89
74792;SHT30;63319;46.046;17.802;2023-06-01T18:40:38;25.47;56.86
74792;SHT30;63319;46.046;17.802;2023-06-01T18:43:41;25.47;56.91
74792;SHT30;63319;46.046;17.802;2023-06-01T18:46:43;25.43;56.93
74792;SHT30;63319;46.046;17.802;2023-06-01T18:49:47;25.43;56.95
74792;SHT30;63319;46.046;17.802;2023-06-01T18:52:50;25.46;56.91
74792;SHT30;63319;46.046;17.802;2023-06-01T18:55:52;25.43;56.99
74792;SHT30;63319;46.046;17.802;2023-06-01T18:58:55;25.40;57.01
74792;SHT30;63319;46.046;17.802;2023-06-01T19:02:00;25.41;57.01
74792;SHT30;63319;46.046;17.802;2023-06-01T19:05:03;25.39;57.04
74792;SHT30;63319;46.046;17.802;2023-06-01T19:08:08;25.37;57.05
74792;SHT30;63319;46.046;17.802;2023-06-01T19:11:13;25.36;57.12
74792;SHT30;63319;46.046;17.802;2023-06-01T19:14:16;25.33;57.14
74792;SHT30;63319;46.046;17.802;2023-06-01T19:17:19;25.36;57.20
74792;SHT30;63319;46.046;17.802;2023-06-01T19:21:11;25.30;57.22
74792;SHT30;63319;46.046;17.802;2023-06-01T19:24:15;25.27;57.25